sensor_id;sensor_type;location;lat;lon;timestamp;P1;durP1;ratioP1;P2;durP2;ratioP2
53549;SDS011;67273;52.914;-0.982;2023-04-25T00:00:20;4.22;;;2.08;;
53549;SDS011;67273;52.914;-0.982;2023-04-25T00:02:46;4.80;;;1.90;;
53549;SDS011;67273;52.914;-0.982;2023-04-25T00:05:12;3.50;;;1.90;;
53549;SDS011;67273;52.914;-0.982;2023-04-25T00:07:40;5.07;;;2.20;;
53549;SDS011;67273;52.914;-0.982;2023-04-25T00:10:08;4.22;;;2.00;;
53549;SDS011;67273;52.914;-0.982;2023-04-25T00:12:34;4.13;;;2.28;;
53549;SDS011;67273;52.914;-0.982;2023-04-25T00:15:02;3.85;;;1.92;;
53549;SDS011;67273;52.914;-0.982;2023-04-25T00:17:28;4.18;;;2.05;;
53549;SDS011;67273;52.914;-0.982;2023-04-25T00:19:54;4.85;;;2.33;;
53549;SDS011;67273;52.914;-0.982;2023-04-25T00:22:21;3.22;;;1.90;;
53549;SDS011;67273;52.914;-0.982;2023-04-25T00:24:46;3.83;;;2.10;;
53549;SDS011;67273;52.914;-0.982;2023-04-25T00:27:12;4.88;;;2.38;;
53549;SDS011;67273;52.914;-0.982;2023-04-25T00:29:38;3.65;;;1.90;;
53549;SDS011;67273;52.914;-0.982;2023-04-25T00:32:06;3.95;;;1.80;;
53549;SDS011;67273;52.914;-0.982;2023-04-25T00:34:31;3.88;;;1.75;;
53549;SDS011;67273;52.914;-0.982;2023-04-25T00:36:57;3.45;;;1.83;;
53549;SDS011;67273;52.914;-0.982;2023-04-25T00:39:23;4.63;;;2.33;;
53549;SDS011;67273;52.914;-0.982;2023-04-25T00:41:48;3.85;;;2.00;;
53549;SDS011;67273;52.914;-0.982;2023-04-25T00:44:18;3.55;;;1.88;;
53549;SDS011;67273;52.914;-0.982;2023-04-25T00:46:44;5.40;;;2.08;;
53549;SDS011;67273;52.914;-0.982;2023-04-25T00:49:12;4.30;;;2.00;;
53549;SDS011;67273;52.914;-0.982;2023-04-25T00:51:40;4.32;;;2.20;;
53549;SDS011;67273;52.914;-0.982;2023-04-25T00:54:06;4.47;;;2.15;;
53549;SDS011;67273;52.914;-0.982;2023-04-25T00:56:32;5.35;;;2.08;;
53549;SDS011;67273;52.914;-0.982;2023-04-25T00:58:58;4.53;;;2.08;;
53549;SDS011;67273;52.914;-0.982;2023-04-25T01:01:24;3.70;;;1.95;;
53549;SDS011;67273;52.914;-0.982;2023-04-25T01:03:50;4.45;;;2.10;;
53549;SDS011;67273;52.914;-0.982;2023-04-25T01:06:19;4.05;;;2.08;;
53549;SDS011;67273;52.914;-0.982;2023-04-25T01:08:45;5.95;;;2.20;;
53549;SDS011;67273;52.914;-0.982;2023-04-25T01:11:10;3.88;;;2.15;;
53549;SDS011;67273;52.914;-0.982;2023-04-25T01:13:36;3.95;;;1.92;;
53549;SDS011;67273;52.914;-0.982;2023-04-25T01:16:03;4.82;;;2.25;;
53549;SDS011;67273;52.914;-0.982;2023-04-25T01:18:29;4.80;;;2.10;;
53549;SDS011;67273;52.914;-0.982;2023-04-25T01:20:55;4.20;;;2.10;;
53549;SDS011;67273;52.914;-0.982;2023-04-25T01:23:24;4.43;;;2.13;;
53549;SDS011;67273;52.914;-0.982;2023-04-25T01:25:50;4.88;;;2.03;;
53549;SDS011;67273;52.914;-0.982;2023-04-25T01:28:17;3.38;;;1.70;;
53549;SDS011;67273;52.914;-0.982;2023-04-25T01:30:43;4.03;;;1.92;;
53549;SDS011;67273;52.914;-0.982;2023-04-25T01:33:09;4.57;;;1.85;;
53549;SDS011;67273;52.914;-0.982;2023-04-25T01:35:36;3.97;;;2.20;;
53549;SDS011;67273;52.914;-0.982;2023-04-25T01:38:02;2.45;;;1.52;;
53549;SDS011;67273;52.914;-0.982;2023-04-25T01:40:33;3.28;;;1.80;;
53549;SDS011;67273;52.914;-0.982;2023-04-25T01:42:59;4.18;;;1.85;;
53549;SDS011;67273;52.914;-0.982;2023-04-25T01:45:26;4.18;;;1.88;;
53549;SDS011;67273;52.914;-0.982;2023-04-25T01:47:54;2.40;;;1.73;;
53549;SDS011;67273;52.914;-0.982;2023-04-25T01:50:24;3.75;;;1.80;;
53549;SDS011;67273;52.914;-0.982;2023-04-25T01:52:51;3.30;;;1.80;;
53549;SDS011;67273;52.914;-0.982;2023-04-25T01:55:18;3.22;;;1.80;;
53549;SDS011;67273;52.914;-0.982;2023-04-25T01:57:54;4.72;;;1.88;;
53549;SDS011;67273;52.914;-0.982;2023-04-25T02:00:32;3.33;;;1.85;;
53549;SDS011;67273;52.914;-0.982;2023-04-25T02:02:58;3.25;;;2.00;;
53549;SDS011;67273;52.914;-0.982;2023-04-25T02:05:34;3.45;;;1.83;;
53549;SDS011;67273;52.914;-0.982;2023-04-25T02:08:01;3.63;;;1.85;;
53549;SDS011;67273;52.914;-0.982;2023-04-25T02:10:27;4.00;;;1.98;;
53549;SDS011;67273;52.914;-0.982;2023-04-25T02:13:24;3.17;;;1.52;;
53549;SDS011;67273;52.914;-0.982;2023-04-25T02:15:49;3.50;;;1.88;;
53549;SDS011;67273;52.914;-0.982;2023-04-25T02:18:18;4.38;;;2.00;;
53549;SDS011;67273;52.914;-0.982;2023-04-25T02:20:44;4.63;;;1.90;;
53549;SDS011;67273;52.914;-0.982;2023-04-25T02:23:10;3.15;;;1.98;;
53549;SDS011;67273;52.914;-0.982;2023-04-25T02:25:36;3.85;;;2.20;;
53549;SDS011;67273;52.914;-0.982;2023-04-25T02:28:02;4.15;;;2.15;;
53549;SDS011;67273;52.914;-0.982;2023-04-25T02:30:30;3.28;;;1.60;;
53549;SDS011;67273;52.914;-0.982;2023-04-25T02:32:55;3.85;;;1.90;;
53549;SDS011;67273;52.914;-0.982;2023-04-25T02:35:22;2.72;;;1.60;;
53549;SDS011;67273;52.914;-0.982;2023-04-25T02:37:47;3.67;;;1.85;;
53549;SDS011;67273;52.914;-0.982;2023-04-25T02:40:13;3.38;;;1.65;;
53549;SDS011;67273;52.914;-0.982;2023-04-25T02:42:39;3.72;;;1.92;;
53549;SDS011;67273;52.914;-0.982;2023-04-25T02:45:06;3.92;;;1.70;;
53549;SDS011;67273;52.914;-0.982;2023-04-25T02:47:37;3.10;;;1.75;;
53549;SDS011;67273;52.914;-0.982;2023-04-25T02:50:08;3.35;;;1.80;;
53549;SDS011;67273;52.914;-0.982;2023-04-25T02:52:38;4.43;;;2.10;;
53549;SDS011;67273;52.914;-0.982;2023-04-25T02:55:12;3.47;;;1.95;;
53549;SDS011;67273;52.914;-0.982;2023-04-25T02:57:39;3.53;;;1.88;;
53549;SDS011;67273;52.914;-0.982;2023-04-25T03:00:11;2.63;;;1.70;;
53549;SDS011;67273;52.914;-0.982;2023-04-25T03:02:42;3.97;;;2.00;;
53549;SDS011;67273;52.914;-0.982;2023-04-25T03:05:11;4.95;;;2.00;;
53549;SDS011;67273;52.914;-0.982;2023-04-25T03:07:40;3.55;;;2.00;;
53549;SDS011;67273;52.914;-0.982;2023-04-25T03:10:10;3.75;;;1.65;;
53549;SDS011;67273;52.914;-0.982;2023-04-25T03:12:39;2.67;;;1.70;;
53549;SDS011;67273;52.914;-0.982;2023-04-25T03:15:07;4.38;;;1.90;;
53549;SDS011;67273;52.914;-0.982;2023-04-25T03:17:33;3.65;;;1.63;;
53549;SDS011;67273;52.914;-0.982;2023-04-25T03:20:00;3.38;;;1.75;;
53549;SDS011;67273;52.914;-0.982;2023-04-25T03:22:28;3.42;;;1.83;;
53549;SDS011;67273;52.914;-0.982;2023-04-25T03:24:53;4.13;;;1.73;;
53549;SDS011;67273;52.914;-0.982;2023-04-25T03:27:19;3.80;;;1.83;;
53549;SDS011;67273;52.914;-0.982;2023-04-25T03:29:45;3.22;;;1.80;;
53549;SDS011;67273;52.914;-0.982;2023-04-25T03:32:11;3.65;;;1.80;;
53549;SDS011;67273;52.914;-0.982;2023-04-25T03:34:37;3.65;;;1.70;;
53549;SDS011;67273;52.914;-0.982;2023-04-25T03:37:04;3.40;;;1.75;;
53549;SDS011;67273;52.914;-0.982;2023-04-25T03:39:34;3.22;;;1.83;;
53549;SDS011;67273;52.914;-0.982;2023-04-25T03:42:00;3.47;;;1.65;;
53549;SDS011;67273;52.914;-0.982;2023-04-25T03:44:27;3.58;;;1.75;;
53549;SDS011;67273;52.914;-0.982;2023-04-25T03:46:54;4.13;;;1.70;;
53549;SDS011;67273;52.914;-0.982;2023-04-25T03:49:23;3.30;;;1.70;;
53549;SDS011;67273;52.914;-0.982;2023-04-25T03:52:03;3.13;;;1.60;;
53549;SDS011;67273;52.914;-0.982;2023-04-25T03:54:35;4.30;;;1.85;;
53549;SDS011;67273;52.914;-0.982;2023-04-25T03:57:15;2.58;;;1.75;;
53549;SDS011;67273;52.914;-0.982;2023-04-25T03:59:42;3.45;;;1.80;;
53549;SDS011;67273;52.914;-0.982;2023-04-25T04:02:12;2.80;;;1.58;;
53549;SDS011;67273;52.914;-0.982;2023-04-25T04:04:39;3.67;;;1.83;;
53549;SDS011;67273;52.914;-0.982;2023-04-25T04:07:06;3.58;;;1.80;;
53549;SDS011;67273;52.914;-0.982;2023-04-25T04:09:38;4.27;;;2.00;;
53549;SDS011;67273;52.914;-0.982;2023-04-25T04:12:11;3.17;;;1.80;;
53549;SDS011;67273;52.914;-0.982;2023-04-25T04:14:39;2.28;;;1.50;;
53549;SDS011;67273;52.914;-0.982;2023-04-25T04:17:06;4.55;;;2.00;;
53549;SDS011;67273;52.914;-0.982;2023-04-25T04:19:32;2.95;;;1.40;;
53549;SDS011;67273;52.914;-0.982;2023-04-25T04:22:10;4.30;;;1.65;;
53549;SDS011;67273;52.914;-0.982;2023-04-25T04:24:37;2.88;;;1.60;;
53549;SDS011;67273;52.914;-0.982;2023-04-25T04:27:06;2.58;;;1.60;;
53549;SDS011;67273;52.914;-0.982;2023-04-25T04:29:38;3.45;;;1.73;;
53549;SDS011;67273;52.914;-0.982;2023-04-25T04:32:10;3.25;;;1.60;;
53549;SDS011;67273;52.914;-0.982;2023-04-25T04:34:36;4.22;;;2.08;;
53549;SDS011;67273;52.914;-0.982;2023-04-25T04:37:03;3.58;;;1.48;;
53549;SDS011;67273;52.914;-0.982;2023-04-25T04:39:30;3.50;;;1.73;;
53549;SDS011;67273;52.914;-0.982;2023-04-25T04:42:13;3.72;;;1.92;;
53549;SDS011;67273;52.914;-0.982;2023-04-25T04:45:06;4.68;;;2.15;;
53549;SDS011;67273;52.914;-0.982;2023-04-25T04:48:02;3.85;;;1.80;;
53549;SDS011;67273;52.914;-0.982;2023-04-25T04:50:56;3.58;;;1.50;;
53549;SDS011;67273;52.914;-0.982;2023-04-25T04:53:45;3.20;;;1.60;;
53549;SDS011;67273;52.914;-0.982;2023-04-25T04:56:42;2.80;;;1.52;;
53549;SDS011;67273;52.914;-0.982;2023-04-25T04:59:33;4.35;;;1.85;;
53549;SDS011;67273;52.914;-0.982;2023-04-25T05:02:26;3.40;;;1.83;;
53549;SDS011;67273;52.914;-0.982;2023-04-25T05:05:05;2.58;;;1.40;;
53549;SDS011;67273;52.914;-0.982;2023-04-25T05:07:56;4.32;;;1.95;;
53549;SDS011;67273;52.914;-0.982;2023-04-25T05:10:51;3.53;;;1.90;;
53549;SDS011;67273;52.914;-0.982;2023-04-25T05:13:44;4.15;;;2.10;;
53549;SDS011;67273;52.914;-0.982;2023-04-25T05:19:21;2.95;;;1.77;;
53549;SDS011;67273;52.914;-0.982;2023-04-25T05:22:13;3.38;;;1.80;;
53549;SDS011;67273;52.914;-0.982;2023-04-25T05:25:14;3.70;;;1.55;;
53549;SDS011;67273;52.914;-0.982;2023-04-25T05:27:59;3.38;;;1.40;;
53549;SDS011;67273;52.914;-0.982;2023-04-25T05:30:48;3.30;;;1.60;;
53549;SDS011;67273;52.914;-0.982;2023-04-25T05:33:20;3.10;;;1.77;;
53549;SDS011;67273;52.914;-0.982;2023-04-25T05:35:46;3.70;;;1.60;;
53549;SDS011;67273;52.914;-0.982;2023-04-25T05:38:13;4.35;;;1.75;;
53549;SDS011;67273;52.914;-0.982;2023-04-25T05:40:57;3.75;;;1.88;;
53549;SDS011;67273;52.914;-0.982;2023-04-25T05:43:56;3.28;;;1.80;;
53549;SDS011;67273;52.914;-0.982;2023-04-25T05:49:20;3.53;;;1.65;;
53549;SDS011;67273;52.914;-0.982;2023-04-25T05:52:04;6.45;;;1.90;;
53549;SDS011;67273;52.914;-0.982;2023-04-25T05:54:52;4.35;;;1.95;;
53549;SDS011;67273;52.914;-0.982;2023-04-25T05:57:19;2.60;;;1.70;;
53549;SDS011;67273;52.914;-0.982;2023-04-25T05:59:46;3.53;;;1.83;;
53549;SDS011;67273;52.914;-0.982;2023-04-25T06:02:14;3.80;;;1.63;;
53549;SDS011;67273;52.914;-0.982;2023-04-25T06:04:41;3.10;;;1.70;;
53549;SDS011;67273;52.914;-0.982;2023-04-25T06:07:07;4.03;;;1.90;;
53549;SDS011;67273;52.914;-0.982;2023-04-25T06:09:34;3.08;;;1.83;;
53549;SDS011;67273;52.914;-0.982;2023-04-25T06:11:59;3.72;;;1.92;;
53549;SDS011;67273;52.914;-0.982;2023-04-25T06:14:26;3.75;;;1.73;;
53549;SDS011;67273;52.914;-0.982;2023-04-25T06:16:52;2.40;;;1.55;;
53549;SDS011;67273;52.914;-0.982;2023-04-25T06:19:20;4.05;;;1.90;;
53549;SDS011;67273;52.914;-0.982;2023-04-25T06:21:45;4.32;;;2.20;;
53549;SDS011;67273;52.914;-0.982;2023-04-25T06:24:11;2.90;;;1.70;;
53549;SDS011;67273;52.914;-0.982;2023-04-25T06:26:38;3.13;;;1.70;;
53549;SDS011;67273;52.914;-0.982;2023-04-25T06:29:04;3.50;;;1.52;;
53549;SDS011;67273;52.914;-0.982;2023-04-25T06:31:30;4.57;;;1.90;;
53549;SDS011;67273;52.914;-0.982;2023-04-25T06:33:59;4.30;;;1.98;;
53549;SDS011;67273;52.914;-0.982;2023-04-25T06:36:28;3.90;;;1.80;;
53549;SDS011;67273;52.914;-0.982;2023-04-25T06:38:59;2.90;;;1.65;;
53549;SDS011;67273;52.914;-0.982;2023-04-25T06:41:25;2.83;;;1.55;;
53549;SDS011;67273;52.914;-0.982;2023-04-25T06:43:53;2.53;;;1.55;;
53549;SDS011;67273;52.914;-0.982;2023-04-25T06:46:35;2.92;;;1.80;;
53549;SDS011;67273;52.914;-0.982;2023-04-25T06:49:01;3.22;;;1.50;;
53549;SDS011;67273;52.914;-0.982;2023-04-25T06:51:28;2.95;;;1.70;;
53549;SDS011;67273;52.914;-0.982;2023-04-25T06:53:56;3.50;;;1.73;;
53549;SDS011;67273;52.914;-0.982;2023-04-25T06:56:35;4.20;;;1.50;;
53549;SDS011;67273;52.914;-0.982;2023-04-25T06:59:09;3.47;;;1.38;;
53549;SDS011;67273;52.914;-0.982;2023-04-25T07:01:37;3.10;;;1.67;;
53549;SDS011;67273;52.914;-0.982;2023-04-25T07:04:09;5.28;;;2.00;;
53549;SDS011;67273;52.914;-0.982;2023-04-25T07:06:41;3.78;;;1.90;;
53549;SDS011;67273;52.914;-0.982;2023-04-25T07:09:08;3.50;;;1.70;;
53549;SDS011;67273;52.914;-0.982;2023-04-25T07:11:35;4.78;;;2.25;;
53549;SDS011;67273;52.914;-0.982;2023-04-25T07:14:01;4.53;;;2.00;;
53549;SDS011;67273;52.914;-0.982;2023-04-25T07:16:27;4.32;;;1.92;;
53549;SDS011;67273;52.914;-0.982;2023-04-25T07:18:53;5.93;;;2.05;;
53549;SDS011;67273;52.914;-0.982;2023-04-25T07:21:19;3.88;;;1.80;;
53549;SDS011;67273;52.914;-0.982;2023-04-25T07:23:48;5.47;;;1.90;;
53549;SDS011;67273;52.914;-0.982;2023-04-25T07:26:18;4.18;;;1.90;;
53549;SDS011;67273;52.914;-0.982;2023-04-25T07:29:03;4.75;;;1.65;;
53549;SDS011;67273;52.914;-0.982;2023-04-25T07:31:29;3.10;;;1.70;;
53549;SDS011;67273;52.914;-0.982;2023-04-25T07:33:54;3.92;;;1.70;;
53549;SDS011;67273;52.914;-0.982;2023-04-25T07:36:20;3.53;;;1.70;;
53549;SDS011;67273;52.914;-0.982;2023-04-25T07:38:46;4.85;;;1.90;;
53549;SDS011;67273;52.914;-0.982;2023-04-25T07:41:14;3.10;;;1.55;;
53549;SDS011;67273;52.914;-0.982;2023-04-25T07:43:40;3.90;;;1.70;;
53549;SDS011;67273;52.914;-0.982;2023-04-25T07:46:06;3.83;;;1.80;;
53549;SDS011;67273;52.914;-0.982;2023-04-25T07:48:33;3.63;;;1.70;;
53549;SDS011;67273;52.914;-0.982;2023-04-25T07:51:01;3.80;;;1.70;;
53549;SDS011;67273;52.914;-0.982;2023-04-25T07:53:28;4.30;;;1.50;;
53549;SDS011;67273;52.914;-0.982;2023-04-25T07:55:58;2.92;;;1.52;;
53549;SDS011;67273;52.914;-0.982;2023-04-25T07:58:26;2.95;;;1.45;;
53549;SDS011;67273;52.914;-0.982;2023-04-25T08:00:56;4.15;;;1.95;;
53549;SDS011;67273;52.914;-0.982;2023-04-25T08:03:42;4.65;;;1.80;;
53549;SDS011;67273;52.914;-0.982;2023-04-25T08:06:14;4.35;;;1.70;;
53549;SDS011;67273;52.914;-0.982;2023-04-25T08:08:49;3.53;;;1.77;;
53549;SDS011;67273;52.914;-0.982;2023-04-25T08:11:17;3.42;;;1.73;;
53549;SDS011;67273;52.914;-0.982;2023-04-25T08:13:44;5.82;;;1.60;;
53549;SDS011;67273;52.914;-0.982;2023-04-25T08:16:11;2.45;;;1.40;;
53549;SDS011;67273;52.914;-0.982;2023-04-25T08:18:37;3.00;;;1.58;;
53549;SDS011;67273;52.914;-0.982;2023-04-25T08:21:03;3.60;;;1.67;;
53549;SDS011;67273;52.914;-0.982;2023-04-25T08:23:29;2.80;;;1.55;;
53549;SDS011;67273;52.914;-0.982;2023-04-25T08:26:02;3.58;;;1.73;;
53549;SDS011;67273;52.914;-0.982;2023-04-25T08:28:29;2.55;;;1.40;;
53549;SDS011;67273;52.914;-0.982;2023-04-25T08:30:58;4.30;;;1.70;;
53549;SDS011;67273;52.914;-0.982;2023-04-25T08:33:28;3.70;;;1.50;;
53549;SDS011;67273;52.914;-0.982;2023-04-25T08:36:00;3.15;;;1.63;;
53549;SDS011;67273;52.914;-0.982;2023-04-25T08:38:28;3.17;;;1.70;;
53549;SDS011;67273;52.914;-0.982;2023-04-25T08:40:55;3.08;;;1.60;;
53549;SDS011;67273;52.914;-0.982;2023-04-25T08:43:25;3.10;;;1.50;;
53549;SDS011;67273;52.914;-0.982;2023-04-25T08:45:50;3.08;;;1.60;;
53549;SDS011;67273;52.914;-0.982;2023-04-25T08:48:33;3.88;;;1.58;;
53549;SDS011;67273;52.914;-0.982;2023-04-25T08:51:01;2.58;;;1.40;;
53549;SDS011;67273;52.914;-0.982;2023-04-25T08:53:30;5.07;;;1.50;;
53549;SDS011;67273;52.914;-0.982;2023-04-25T08:55:59;4.03;;;1.58;;
53549;SDS011;67273;52.914;-0.982;2023-04-25T08:58:33;3.38;;;1.60;;
53549;SDS011;67273;52.914;-0.982;2023-04-25T09:01:00;1.65;;;1.10;;
53549;SDS011;67273;52.914;-0.982;2023-04-25T09:03:28;2.20;;;1.35;;
53549;SDS011;67273;52.914;-0.982;2023-04-25T09:05:56;3.67;;;1.65;;
53549;SDS011;67273;52.914;-0.982;2023-04-25T09:08:24;2.35;;;1.40;;
53549;SDS011;67273;52.914;-0.982;2023-04-25T09:10:51;3.50;;;1.40;;
53549;SDS011;67273;52.914;-0.982;2023-04-25T09:13:23;3.88;;;1.58;;
53549;SDS011;67273;52.914;-0.982;2023-04-25T09:16:16;1.85;;;1.20;;
53549;SDS011;67273;52.914;-0.982;2023-04-25T09:19:05;3.88;;;1.33;;
53549;SDS011;67273;52.914;-0.982;2023-04-25T09:21:35;2.83;;;1.40;;
53549;SDS011;67273;52.914;-0.982;2023-04-25T09:24:01;2.50;;;1.25;;
53549;SDS011;67273;52.914;-0.982;2023-04-25T09:26:28;2.63;;;1.40;;
53549;SDS011;67273;52.914;-0.982;2023-04-25T09:29:04;2.97;;;1.30;;
53549;SDS011;67273;52.914;-0.982;2023-04-25T09:31:32;2.20;;;1.27;;
53549;SDS011;67273;52.914;-0.982;2023-04-25T09:34:00;4.03;;;1.40;;
53549;SDS011;67273;52.914;-0.982;2023-04-25T09:36:29;3.30;;;1.50;;
53549;SDS011;67273;52.914;-0.982;2023-04-25T09:39:15;2.40;;;1.17;;
53549;SDS011;67273;52.914;-0.982;2023-04-25T09:41:46;1.98;;;1.35;;
53549;SDS011;67273;52.914;-0.982;2023-04-25T09:44:12;2.80;;;1.30;;
53549;SDS011;67273;52.914;-0.982;2023-04-25T09:46:40;2.70;;;1.27;;
53549;SDS011;67273;52.914;-0.982;2023-04-25T09:49:15;3.42;;;1.40;;
53549;SDS011;67273;52.914;-0.982;2023-04-25T09:51:53;2.38;;;1.30;;
53549;SDS011;67273;52.914;-0.982;2023-04-25T09:54:22;2.67;;;1.33;;
53549;SDS011;67273;52.914;-0.982;2023-04-25T09:56:52;3.40;;;1.30;;
53549;SDS011;67273;52.914;-0.982;2023-04-25T09:59:19;2.00;;;1.10;;
53549;SDS011;67273;52.914;-0.982;2023-04-25T10:01:46;2.28;;;1.15;;
53549;SDS011;67273;52.914;-0.982;2023-04-25T10:04:24;3.53;;;1.70;;
53549;SDS011;67273;52.914;-0.982;2023-04-25T10:07:19;2.13;;;1.30;;
53549;SDS011;67273;52.914;-0.982;2023-04-25T10:09:48;4.22;;;1.50;;
53549;SDS011;67273;52.914;-0.982;2023-04-25T10:12:17;2.72;;;1.35;;
53549;SDS011;67273;52.914;-0.982;2023-04-25T10:14:43;1.80;;;1.27;;
53549;SDS011;67273;52.914;-0.982;2023-04-25T10:17:10;3.30;;;1.20;;
53549;SDS011;67273;52.914;-0.982;2023-04-25T10:19:36;2.38;;;1.27;;
53549;SDS011;67273;52.914;-0.982;2023-04-25T10:22:07;3.58;;;1.58;;
53549;SDS011;67273;52.914;-0.982;2023-04-25T10:24:37;1.92;;;1.20;;
53549;SDS011;67273;52.914;-0.982;2023-04-25T10:27:05;2.42;;;1.40;;
53549;SDS011;67273;52.914;-0.982;2023-04-25T10:29:31;2.10;;;1.17;;
53549;SDS011;67273;52.914;-0.982;2023-04-25T10:31:57;2.30;;;1.20;;
53549;SDS011;67273;52.914;-0.982;2023-04-25T10:34:24;2.97;;;1.20;;
53549;SDS011;67273;52.914;-0.982;2023-04-25T10:37:02;2.03;;;1.20;;
53549;SDS011;67273;52.914;-0.982;2023-04-25T10:39:28;2.22;;;1.30;;
53549;SDS011;67273;52.914;-0.982;2023-04-25T10:41:55;1.55;;;1.15;;
53549;SDS011;67273;52.914;-0.982;2023-04-25T10:44:24;1.80;;;1.20;;
53549;SDS011;67273;52.914;-0.982;2023-04-25T10:46:52;2.25;;;1.20;;
53549;SDS011;67273;52.914;-0.982;2023-04-25T10:49:28;1.25;;;1.08;;
53549;SDS011;67273;52.914;-0.982;2023-04-25T10:52:17;2.20;;;1.25;;
53549;SDS011;67273;52.914;-0.982;2023-04-25T10:54:47;2.47;;;1.10;;
53549;SDS011;67273;52.914;-0.982;2023-04-25T10:57:28;1.33;;;1.13;;
53549;SDS011;67273;52.914;-0.982;2023-04-25T10:59:59;2.25;;;1.40;;
53549;SDS011;67273;52.914;-0.982;2023-04-25T11:02:26;2.47;;;1.27;;
53549;SDS011;67273;52.914;-0.982;2023-04-25T11:04:53;1.55;;;1.10;;
53549;SDS011;67273;52.914;-0.982;2023-04-25T11:07:22;1.80;;;1.08;;
53549;SDS011;67273;52.914;-0.982;2023-04-25T11:09:51;1.77;;;1.10;;
53549;SDS011;67273;52.914;-0.982;2023-04-25T11:12:17;1.38;;;1.08;;
53549;SDS011;67273;52.914;-0.982;2023-04-25T11:14:43;1.85;;;1.20;;
53549;SDS011;67273;52.914;-0.982;2023-04-25T11:17:10;1.45;;;1.20;;
53549;SDS011;67273;52.914;-0.982;2023-04-25T11:19:36;2.78;;;1.23;;
53549;SDS011;67273;52.914;-0.982;2023-04-25T11:22:02;1.48;;;1.00;;
53549;SDS011;67273;52.914;-0.982;2023-04-25T11:24:29;2.42;;;1.23;;
53549;SDS011;67273;52.914;-0.982;2023-04-25T11:26:56;1.17;;;0.90;;
53549;SDS011;67273;52.914;-0.982;2023-04-25T11:29:23;1.67;;;1.23;;
53549;SDS011;67273;52.914;-0.982;2023-04-25T11:31:51;1.85;;;1.20;;
53549;SDS011;67273;52.914;-0.982;2023-04-25T11:34:19;1.30;;;1.00;;
53549;SDS011;67273;52.914;-0.982;2023-04-25T11:36:45;2.08;;;1.35;;
53549;SDS011;67273;52.914;-0.982;2023-04-25T11:39:11;2.08;;;1.20;;
53549;SDS011;67273;52.914;-0.982;2023-04-25T11:41:36;1.58;;;1.10;;
53549;SDS011;67273;52.914;-0.982;2023-04-25T11:44:02;0.93;;;0.75;;
53549;SDS011;67273;52.914;-0.982;2023-04-25T11:46:29;2.00;;;1.20;;
53549;SDS011;67273;52.914;-0.982;2023-04-25T11:48:54;1.77;;;1.00;;
53549;SDS011;67273;52.914;-0.982;2023-04-25T11:51:22;1.75;;;1.27;;
53549;SDS011;67273;52.914;-0.982;2023-04-25T11:53:48;2.78;;;1.25;;
53549;SDS011;67273;52.914;-0.982;2023-04-25T11:56:13;2.75;;;1.20;;
53549;SDS011;67273;52.914;-0.982;2023-04-25T11:58:55;1.88;;;1.33;;
53549;SDS011;67273;52.914;-0.982;2023-04-25T12:01:25;1.63;;;1.20;;
53549;SDS011;67273;52.914;-0.982;2023-04-25T12:03:52;1.10;;;1.00;;
53549;SDS011;67273;52.914;-0.982;2023-04-25T12:06:18;2.22;;;1.30;;
53549;SDS011;67273;52.914;-0.982;2023-04-25T12:11:41;2.22;;;1.10;;
53549;SDS011;67273;52.914;-0.982;2023-04-25T12:14:09;1.67;;;1.10;;
53549;SDS011;67273;52.914;-0.982;2023-04-25T12:16:41;1.77;;;1.15;;
53549;SDS011;67273;52.914;-0.982;2023-04-25T12:19:07;2.58;;;1.40;;
53549;SDS011;67273;52.914;-0.982;2023-04-25T12:21:33;1.10;;;1.00;;
53549;SDS011;67273;52.914;-0.982;2023-04-25T12:24:08;1.52;;;1.30;;
53549;SDS011;67273;52.914;-0.982;2023-04-25T12:26:46;1.80;;;1.10;;
53549;SDS011;67273;52.914;-0.982;2023-04-25T12:29:15;1.63;;;1.33;;
53549;SDS011;67273;52.914;-0.982;2023-04-25T12:31:41;2.03;;;1.30;;
53549;SDS011;67273;52.914;-0.982;2023-04-25T12:34:07;1.20;;;1.02;;
53549;SDS011;67273;52.914;-0.982;2023-04-25T12:36:33;0.85;;;0.80;;
53549;SDS011;67273;52.914;-0.982;2023-04-25T12:38:58;2.58;;;1.10;;
53549;SDS011;67273;52.914;-0.982;2023-04-25T12:41:29;1.20;;;1.10;;
53549;SDS011;67273;52.914;-0.982;2023-04-25T12:43:56;1.67;;;1.20;;
53549;SDS011;67273;52.914;-0.982;2023-04-25T12:46:22;1.50;;;1.05;;
53549;SDS011;67273;52.914;-0.982;2023-04-25T12:48:50;1.33;;;1.00;;
53549;SDS011;67273;52.914;-0.982;2023-04-25T12:51:16;1.30;;;0.90;;
53549;SDS011;67273;52.914;-0.982;2023-04-25T12:53:41;2.30;;;1.27;;
53549;SDS011;67273;52.914;-0.982;2023-04-25T12:56:07;1.63;;;1.10;;
53549;SDS011;67273;52.914;-0.982;2023-04-25T12:58:33;1.15;;;1.05;;
53549;SDS011;67273;52.914;-0.982;2023-04-25T13:01:00;1.80;;;1.10;;
53549;SDS011;67273;52.914;-0.982;2023-04-25T13:03:26;1.75;;;1.05;;
53549;SDS011;67273;52.914;-0.982;2023-04-25T13:05:51;1.70;;;1.17;;
53549;SDS011;67273;52.914;-0.982;2023-04-25T13:08:17;1.27;;;1.17;;
53549;SDS011;67273;52.914;-0.982;2023-04-25T13:10:43;1.90;;;1.05;;
53549;SDS011;67273;52.914;-0.982;2023-04-25T13:13:09;1.33;;;1.20;;
53549;SDS011;67273;52.914;-0.982;2023-04-25T13:15:35;1.88;;;1.10;;
53549;SDS011;67273;52.914;-0.982;2023-04-25T13:18:03;1.92;;;1.30;;
53549;SDS011;67273;52.914;-0.982;2023-04-25T13:20:29;1.23;;;1.10;;
53549;SDS011;67273;52.914;-0.982;2023-04-25T13:22:55;1.70;;;1.00;;
53549;SDS011;67273;52.914;-0.982;2023-04-25T13:25:21;2.00;;;1.40;;
53549;SDS011;67273;52.914;-0.982;2023-04-25T13:27:47;2.85;;;1.50;;
53549;SDS011;67273;52.914;-0.982;2023-04-25T13:30:13;3.33;;;1.40;;
53549;SDS011;67273;52.914;-0.982;2023-04-25T13:32:39;3.05;;;1.15;;
53549;SDS011;67273;52.914;-0.982;2023-04-25T13:35:07;1.95;;;1.50;;
53549;SDS011;67273;52.914;-0.982;2023-04-25T13:37:34;1.42;;;1.20;;
53549;SDS011;67273;52.914;-0.982;2023-04-25T13:40:00;2.45;;;1.23;;
53549;SDS011;67273;52.914;-0.982;2023-04-25T13:42:29;2.55;;;1.30;;
53549;SDS011;67273;52.914;-0.982;2023-04-25T13:44:55;1.60;;;1.20;;
53549;SDS011;67273;52.914;-0.982;2023-04-25T13:47:21;3.50;;;1.27;;
53549;SDS011;67273;52.914;-0.982;2023-04-25T13:49:48;3.33;;;1.35;;
53549;SDS011;67273;52.914;-0.982;2023-04-25T13:52:15;2.58;;;1.33;;
53549;SDS011;67273;52.914;-0.982;2023-04-25T13:54:41;1.20;;;1.00;;
53549;SDS011;67273;52.914;-0.982;2023-04-25T13:57:07;1.13;;;1.02;;
53549;SDS011;67273;52.914;-0.982;2023-04-25T13:59:33;2.03;;;1.10;;
53549;SDS011;67273;52.914;-0.982;2023-04-25T14:01:58;2.38;;;1.40;;
53549;SDS011;67273;52.914;-0.982;2023-04-25T14:04:24;1.45;;;1.10;;
53549;SDS011;67273;52.914;-0.982;2023-04-25T14:06:51;2.42;;;1.30;;
53549;SDS011;67273;52.914;-0.982;2023-04-25T14:09:18;2.45;;;1.10;;
53549;SDS011;67273;52.914;-0.982;2023-04-25T14:11:46;2.15;;;1.33;;
53549;SDS011;67273;52.914;-0.982;2023-04-25T14:14:11;2.33;;;1.30;;
53549;SDS011;67273;52.914;-0.982;2023-04-25T14:16:38;1.85;;;1.20;;
53549;SDS011;67273;52.914;-0.982;2023-04-25T14:19:04;1.48;;;1.10;;
53549;SDS011;67273;52.914;-0.982;2023-04-25T14:21:30;2.60;;;1.30;;
53549;SDS011;67273;52.914;-0.982;2023-04-25T14:23:57;2.25;;;1.35;;
53549;SDS011;67273;52.914;-0.982;2023-04-25T14:26:24;2.28;;;1.30;;
53549;SDS011;67273;52.914;-0.982;2023-04-25T14:28:50;1.88;;;1.30;;
53549;SDS011;67273;52.914;-0.982;2023-04-25T14:31:16;2.03;;;1.30;;
53549;SDS011;67273;52.914;-0.982;2023-04-25T14:33:42;2.60;;;1.30;;
53549;SDS011;67273;52.914;-0.982;2023-04-25T14:36:08;2.20;;;1.33;;
53549;SDS011;67273;52.914;-0.982;2023-04-25T14:38:34;1.35;;;1.20;;
53549;SDS011;67273;52.914;-0.982;2023-04-25T14:41:00;1.63;;;1.20;;
53549;SDS011;67273;52.914;-0.982;2023-04-25T14:43:27;2.30;;;1.15;;
53549;SDS011;67273;52.914;-0.982;2023-04-25T14:45:53;2.47;;;1.30;;
53549;SDS011;67273;52.914;-0.982;2023-04-25T14:48:19;2.50;;;1.10;;
53549;SDS011;67273;52.914;-0.982;2023-04-25T14:50:44;1.75;;;1.20;;
53549;SDS011;67273;52.914;-0.982;2023-04-25T14:53:10;1.75;;;1.30;;
53549;SDS011;67273;52.914;-0.982;2023-04-25T14:55:37;2.63;;;1.40;;